Aérodrome :
LOGIN :

S'inscrire | Disclaimer

   EN    FR    IT 

 










Légende :    VFR   VFR Marginal   IFR   IFR Intensif   IFR Très Intensif
Visi : 
Plafond : 
>= 8 km
>= 3000ft
5 à 8 km
1000 à 3000 ft
1500m à 5 km
500 à 1000 ft
800 à 1500m
200 à 500 ft
< 800m
< 200 ft
Symboles :   Orages  Brouillard  Fortes neiges  Fortes précipitations  Vent > 20 kt
SIGMETs :   Divers  Orages  Givrage  Turbulence  Onde Orograph.  Cendres Volcan.






- Altitude de l'aérodrome : 302 ft
- Code IATA : CGN


EDDK - Cologne Bonn

DERNIER METAR :
  • 280820Z VRB04KT CAVOK 17/05 Q1033 BECMG 01010KT

METARs EXPIRÉS :
  • 280750Z 36006KT 280V080 9999 FEW038 16/05 Q1033 NOSIG
  • 280720Z 01005KT 310V080 9999 FEW030 15/06 Q1033 BECMG 01010KT
  • 280650Z 05004KT 360V160 9999 FEW025 14/07 Q1033 BECMG 01010KT
  • 280620Z 36004KT 320V070 9999 FEW025 13/07 Q1033 NOSIG
  • 280550Z 02008KT 340V060 9999 FEW025 12/07 Q1033 NOSIG

TAF TAF EDDK
Valide du 28 à 06h jusqu'au 29 à 12h UTC


280500Z 2806/2912 35005KT CAVOK
BECMG 2808/2811 36010KT
BECMG 2819/2822 07004KT



MET'MAP, la Météo Aéronautique d'un coup d'oeil ! - Copyright ORBIFLY Décembre 2007 - Disclaimer

ORBIFLY MET'MAP TEAM :

Programmation & Développement : Alexandra Zaïnal
Sur une idée originale de : Baudouin d'Aumeries
Assistance à la programmation : Marc-Olivier Méhu
Soutien technique & logistique : Manuel Goepfert

Contact : metmap@orbifly.com




SOURCES & CREDITS :

   NOAA